ADDS METAR Data INFO
IDs: Format: Raw Decoded Include TAF

Data at: 1749 UTC 21 Oct 2017

KADM 211651Z 17008KT 10SM BKN024 OVC030 24/20 A2992
KADM 211548Z 15012KT 10SM SCT021 BKN029 OVC033 24/20 A2992
KADM 211455Z 15009G15KT 120V180 10SM SCT017 BKN027 OVC033 23/20 A2993
KADM 211355Z 15010KT 10SM BKN015 BKN022 OVC030 22/20 A2991
KADM 211255Z 15008KT 10SM BKN017 BKN025 OVC030 22/20 A2990
KADM 211155Z 15008G19KT 10SM BKN014 OVC021 22/20 A2989
KADM 211135Z AUTO 16011KT 10SM BKN016 OVC023 22/20 A2988 RMK AO2 T02200196
KADM 211115Z AUTO 15009G15KT 10SM BKN016 OVC024 22/20 A2987 RMK AO2 T02200195
KADM 211055Z AUTO 15009KT 10SM BKN014 OVC022 22/20 A2986 RMK AO2 T02170195
KADM 211035Z AUTO 15011G15KT 10SM BKN014 OVC020 22/20 A2986 RMK AO2 T02170195
KADM 211015Z AUTO 16007KT 10SM OVC014 22/20 A2986 RMK AO2 T02170195
KADM 210955Z AUTO 15010KT 10SM BKN014 OVC022 22/19 A2986 RMK AO2 T02180193
KADM 210935Z AUTO 14009KT 10SM OVC016 22/19 A2986 RMK AO2 T02200193
KADM 210915Z AUTO 15011KT 10SM OVC018 22/19 A2986 RMK AO2 T02200192
KADM 210855Z AUTO 15010G17KT 10SM OVC019 22/19 A2987 RMK AO2 T02190191
KADM 210835Z AUTO 16012G18KT 10SM OVC019 22/19 A2988 RMK AO2 T02180190
KADM 210815Z AUTO 15011G15KT 10SM OVC019 22/19 A2989 RMK AO2 T02180190
KADM 210755Z AUTO 16011KT 10SM OVC019 22/19 A2989 RMK AO2 T02180189
KADM 210735Z AUTO 16009KT 10SM OVC019 22/19 A2990 RMK AO2 T02200188
KADM 210715Z AUTO 15012G19KT 10SM OVC019 22/19 A2991 RMK AO2 T02200188
KADM 210655Z AUTO 15011G16KT 10SM OVC019 22/19 A2991 RMK AO2 T02200188
KADM 210635Z AUTO 15011G18KT 10SM OVC019 22/19 A2991 RMK AO2 T02200188
KADM 210615Z AUTO 16011G15KT 10SM OVC019 22/19 A2991 RMK AO2 T02210187
KADM 210555Z AUTO 15009KT 10SM OVC019 22/19 A2992 RMK AO2 T02220187 10250 20222 402840123
KADM 210535Z AUTO 16012G17KT 10SM OVC021 22/19 A2992 RMK AO2 T02230186
KADM 210515Z AUTO 15010KT 10SM OVC021 23/19 A2992 RMK AO2 T02250185
KADM 210455Z AUTO 16010G15KT 10SM BKN023 BKN041 OVC050 23/18 A2992 RMK AO2 T02260184
KADM 210435Z AUTO 16012G16KT 10SM SCT039 BKN050 BKN055 23/18 A2991 RMK AO2 T02270183
KADM 210415Z AUTO 16012G19KT 10SM CLR 23/18 A2991 RMK AO2 T02270181
KADM 210355Z AUTO 16010G18KT 10SM CLR 23/18 A2991 RMK AO2 T02300180
KADM 210335Z AUTO 16013G16KT 10SM CLR 23/18 A2991 RMK AO2 T02310177
KADM 210315Z AUTO 16011KT 10SM SCT046 SCT100 23/18 A2991 RMK AO2 T02330176
KADM 210255Z AUTO 15014KT 10SM CLR 24/18 A2990 RMK AO2 T02350176
KADM 210235Z AUTO 15013G16KT 10SM CLR 24/18 A2990 RMK AO2 T02360180
KADM 210215Z AUTO 15011KT 10SM SCT048 SCT060 24/18 A2990 RMK AO2 T02380184
KADM 210155Z AUTO 15010KT 10SM SCT048 24/19 A2989 RMK AO2 T02380185
KADM 210135Z AUTO 15008G14KT 10SM SCT046 SCT060 24/19 A2990 RMK AO2 T02410185
KADM 210115Z AUTO 15009KT 10SM SCT041 SCT048 BKN060 24/19 A2990 RMK AO2 T02430186
KADM 210055Z AUTO 15007KT 10SM SCT038 SCT044 BKN060 25/19 A2990 RMK AO2 T02450186
KADM 210035Z AUTO 16009KT 10SM SCT040 BKN047 BKN060 25/19 A2990 RMK AO2 T02470186
KADM 210015Z AUTO 16007KT 10SM SCT040 SCT060 25/18 A2989 RMK AO2 T02460183
KADM 202355Z AUTO 16007KT 10SM SCT038 SCT047 SCT050 25/19 A2989 RMK AO2 T02500185 10284 20250
KADM 202335Z AUTO 16008KT 10SM CLR 25/18 A2989 RMK AO2 T02520184
KADM 202315Z AUTO 16010G16KT 10SM CLR 26/18 A2989 RMK AO2 T02560184
KADM 202255Z AUTO 16012KT 10SM CLR 26/18 A2989 RMK AO2 T02600180
KADM 202235Z AUTO 16013G19KT 10SM CLR 26/17 A2989 RMK AO2 T02630174
KADM 202215Z AUTO 16012G18KT 10SM SCT038 27/18 A2989 RMK AO2 T02700177
KADM 202155Z AUTO 14014G23KT 10SM BKN038 27/18 A2990 RMK AO2 T02720181
KADM 202055Z 15020G30KT 10SM SCT040 SCT060 26/18 A2989
KADM 201955Z 15015G21KT 10SM BKN043 28/18 A2994
KADM 201855Z 15012G22KT 10SM SCT060 28/17 A2997
KADM 201755Z 16012G22KT 10SM SCT060 26/17 A3002
KADM 201655Z 14012G18KT 10SM BKN050 25/16 A3005
KADM 201555Z 14010KT 10SM BKN040 22/16 A3008
KADM 201455Z 13008KT 10SM FEW020 SCT065 18/15 A3009
KADM 201355Z 12006KT 10SM SCT020 16/14 A3010
KADM 201255Z 00000KT 10SM FEW060 SCT080 12/12 A3008
KADM 201156Z 00000KT 10SM SKC 13/13 A3008
KADM 201135Z AUTO 05003KT 10SM CLR 13/12 A3008 RMK AO2 T01300124
KADM 201115Z AUTO 36003KT 10SM CLR 13/12 A3008 RMK AO2 T01340123
KADM 201055Z AUTO 14004KT 10SM CLR 16/14 A3008 RMK AO2 T01600137
KADM 201035Z AUTO 13005KT 10SM CLR 16/14 A3007 RMK AO2 T01550135
KADM 201015Z AUTO 14005KT 10SM CLR 16/14 A3008 RMK AO2 T01550135
KADM 200955Z AUTO 15003KT 10SM CLR 15/13 A3009 RMK AO2 T01540133
KADM 200935Z AUTO 14003KT 10SM CLR 16/14 A3009 RMK AO2 T01560135
KADM 200915Z AUTO 14004KT 10SM SCT048 15/13 A3009 RMK AO2 T01520131
KADM 200855Z AUTO 14003KT 10SM BKN048 15/13 A3009 RMK AO2 T01520132
KADM 200835Z AUTO 14003KT 10SM SCT048 14/13 A3009 RMK AO2 T01360126
KADM 200815Z AUTO 00000KT 10SM CLR 14/13 A3009 RMK AO2 T01390125
KADM 200755Z AUTO 00000KT 7SM CLR 13/13 A3010 RMK AO2 T01320126
KADM 200735Z AUTO 00000KT 10SM CLR 15/13 A3009 RMK AO2 T01450131
KADM 200715Z AUTO 00000KT 10SM CLR 14/13 A3010 RMK AO2 T01350130
KADM 200655Z AUTO 00000KT 10SM CLR 14/13 A3010 RMK AO2 T01420130
KADM 200635Z AUTO 00000KT 10SM CLR 14/12 A3009 RMK AO2 T01420116
KADM 200615Z AUTO 00000KT 10SM CLR 14/12 A3009 RMK AO2 T01410116
KADM 200555Z AUTO 00000KT 10SM CLR 15/12 A3009 RMK AO2 T01510120 10215 20151 402770072